Caroline — WDF4874 — position and weather

sailwx.info

Track history (hours):
 
Tides and Currents Weather Stations Pressure Air Temp Water Temp Dewpoint Dewpoint Depression Visibility Wind Speed Wind Dir Waves Ship Positions

Caroline

Owner: Canal Barge Company, Inc., Belle Chasse, LA. More information available from US FCC via Universal Licensing System and Coast Guard Vessel Documentation Center.

Last reported at 2017-Nov-20 00:30 UTC. Time now 2017-Nov-22 05:42 UTC.
Position N 29°34' W 090°34'.

Length 25 m.

Type: Towing. MMSI: 367456750.

Date/timePositionNaut miles runAvg speedWind from/ knotsBaromVisibWave heightAir tempDewpointWater temp
2017-Nov-20 00:30N 29°34' W 090°34'9 0.3
2017-Nov-18 20:54N 29°33' W 090°24'2 2.8
2017-Nov-18 20:19N 29°33' W 090°26'1 4.2
2017-Nov-18 20:00N 29°33' W 090°27'2 4.3
2017-Nov-18 19:30N 29°34' W 090°30'2 4.3
2017-Nov-18 19:00N 29°34' W 090°32'2 4.1
2017-Nov-18 18:30N 29°34' W 090°35'2 4.0
2017-Nov-18 18:00N 29°35' W 090°37'2 4.4
2017-Nov-18 17:30N 29°36' W 090°39'2 4.0
2017-Nov-18 17:00N 29°36' W 090°41'1 2.6
2017-Nov-18 16:30N 29°36' W 090°43'2 3.7
2017-Nov-18 16:00N 29°34' W 090°43'2 3.8
2017-Nov-18 15:30N 29°33' W 090°45'0 0.2
2017-Nov-18 15:00N 29°33' W 090°45'0 0.3
2017-Nov-18 14:30N 29°33' W 090°45'2 3.3
2017-Nov-18 14:00N 29°32' W 090°47'2 4.2
2017-Nov-18 13:30N 29°32' W 090°49'3 4.1
2017-Nov-18 12:44N 29°32' W 090°53'5 4.2
2017-Nov-18 11:26N 29°35' W 090°58'53 3.3
2017-Nov-17 19:01N 29°51' W 091°57'0 2.2
2017-Nov-17 18:49N 29°50' W 091°57'1 4.3
2017-Nov-17 18:30N 29°50' W 091°59'1 1.7
2017-Nov-17 18:00N 29°50' W 091°60'0 0.1
2017-Nov-17 17:30N 29°50' W 091°60'  
Track history (hours):
 
Tides and Currents Weather Stations Pressure Air Temp Water Temp Dewpoint Dewpoint Depression Visibility Wind Speed Wind Dir Waves Ship Positions

Caroline

Owner: Canal Barge Company, Inc., Belle Chasse, LA. More information available from US FCC via Universal Licensing System and Coast Guard Vessel Documentation Center.

Last reported at 2017-Nov-20 00:30 UTC. Time now 2017-Nov-22 05:42 UTC.
Position N 29°34' W 090°34'.

Length 25 m.

Type: Towing. MMSI: 367456750.

Date/timePositionNaut miles runAvg speedWind from/ knotsBaromVisibWave heightAir tempDewpointWater temp
2017-Nov-20 00:30N 29°34' W 090°34'9 0.3
2017-Nov-18 20:54N 29°33' W 090°24'2 2.8
2017-Nov-18 20:19N 29°33' W 090°26'1 4.2
2017-Nov-18 20:00N 29°33' W 090°27'2 4.3
2017-Nov-18 19:30N 29°34' W 090°30'2 4.3
2017-Nov-18 19:00N 29°34' W 090°32'2 4.1
2017-Nov-18 18:30N 29°34' W 090°35'2 4.0
2017-Nov-18 18:00N 29°35' W 090°37'2 4.4
2017-Nov-18 17:30N 29°36' W 090°39'2 4.0
2017-Nov-18 17:00N 29°36' W 090°41'1 2.6
2017-Nov-18 16:30N 29°36' W 090°43'2 3.7
2017-Nov-18 16:00N 29°34' W 090°43'2 3.8
2017-Nov-18 15:30N 29°33' W 090°45'0 0.2
2017-Nov-18 15:00N 29°33' W 090°45'0 0.3
2017-Nov-18 14:30N 29°33' W 090°45'2 3.3
2017-Nov-18 14:00N 29°32' W 090°47'2 4.2
2017-Nov-18 13:30N 29°32' W 090°49'3 4.1
2017-Nov-18 12:44N 29°32' W 090°53'5 4.2
2017-Nov-18 11:26N 29°35' W 090°58'53 3.3
2017-Nov-17 19:01N 29°51' W 091°57'0 2.2
2017-Nov-17 18:49N 29°50' W 091°57'1 4.3
2017-Nov-17 18:30N 29°50' W 091°59'1 1.7
2017-Nov-17 18:00N 29°50' W 091°60'0 0.1
2017-Nov-17 17:30N 29°50' W 091°60'  

Dump ship's entire track history